createdAt,value
2017-06-14T04:30:18.397Z,4.17
2017-06-14T04:32:45.179Z,5.30
2017-06-14T04:35:11.974Z,5.27
2017-06-14T04:37:38.774Z,5.50
2017-06-14T04:40:05.540Z,4.07
2017-06-14T04:42:32.300Z,4.43
2017-06-14T04:44:59.794Z,4.40
2017-06-14T04:47:26.577Z,5.33
2017-06-14T04:49:53.352Z,3.73
2017-06-14T04:52:20.138Z,3.37
2017-06-14T04:54:46.905Z,4.53
2017-06-14T04:57:13.691Z,5.27
2017-06-14T04:59:40.473Z,4.70
2017-06-14T05:02:11.270Z,4.73
2017-06-14T05:04:34.041Z,2.83
2017-06-14T05:07:00.823Z,4.80
2017-06-14T05:09:27.583Z,4.53
2017-06-14T05:11:54.357Z,3.93
2017-06-14T05:14:21.154Z,2.60
2017-06-14T05:16:47.915Z,1.27
2017-06-14T05:19:14.656Z,2.27
2017-06-14T05:21:41.843Z,2.50
2017-06-14T05:24:08.607Z,3.17
2017-06-14T05:26:35.368Z,3.80
2017-06-14T05:29:02.147Z,3.20
2017-06-14T05:31:28.913Z,3.00
2017-06-14T05:33:55.801Z,1.83
2017-06-14T05:36:22.604Z,3.90
2017-06-14T05:38:49.361Z,3.10
2017-06-14T05:41:16.127Z,3.60
2017-06-14T05:43:42.956Z,4.00
2017-06-14T05:46:09.726Z,4.13
2017-06-14T05:48:36.492Z,3.80
2017-06-14T05:51:03.278Z,3.47
2017-06-14T05:53:30.039Z,4.07
2017-06-14T05:55:56.795Z,3.73
2017-06-14T05:58:23.610Z,4.03
2017-06-14T06:00:50.370Z,3.47
2017-06-14T06:03:17.104Z,3.57
2017-06-14T06:05:43.900Z,1.90
2017-06-14T06:08:10.654Z,4.03
2017-06-14T06:10:37.424Z,3.27
2017-06-14T06:13:04.278Z,3.40
2017-06-14T06:15:31.046Z,1.90
2017-06-14T06:17:57.808Z,2.80
2017-06-14T06:20:24.605Z,2.60
2017-06-14T06:22:51.362Z,2.30
2017-06-14T06:25:18.131Z,2.30
2017-06-14T06:27:44.912Z,2.67
2017-06-14T06:30:11.712Z,1.53
2017-06-14T06:32:38.483Z,2.87
2017-06-14T06:35:05.258Z,3.10
2017-06-14T06:37:32.015Z,2.87
2017-06-14T06:39:58.790Z,2.23
2017-06-14T06:42:25.567Z,2.00
2017-06-14T06:44:52.317Z,2.17
2017-06-14T06:47:19.121Z,1.87
2017-06-14T06:49:45.917Z,2.57
2017-06-14T06:52:12.687Z,2.30
2017-06-14T06:54:39.466Z,1.40
2017-06-14T06:57:06.253Z,2.40
2017-06-14T06:59:33.021Z,2.43
2017-06-14T07:01:59.775Z,1.90
2017-06-14T07:04:26.555Z,2.17
2017-06-14T07:06:53.302Z,2.23
2017-06-14T07:09:20.049Z,3.10
2017-06-14T07:11:46.826Z,1.87
2017-06-14T07:14:13.615Z,2.30
2017-06-14T07:16:40.473Z,2.33
2017-06-14T07:19:07.262Z,2.80
2017-06-14T07:21:34.129Z,2.47
2017-06-14T07:24:00.885Z,3.00
2017-06-14T07:26:27.685Z,2.30
2017-06-14T07:28:54.451Z,2.33
2017-06-14T07:31:21.194Z,2.10
2017-06-14T07:33:47.970Z,2.10
2017-06-14T07:36:14.715Z,1.17
2017-06-14T07:38:41.450Z,0.70
2017-06-14T07:41:08.238Z,2.30
2017-06-14T07:43:35.002Z,2.40
2017-06-14T07:46:01.782Z,2.23
2017-06-14T07:48:28.554Z,1.53
2017-06-14T07:50:55.349Z,2.60
2017-06-14T07:53:22.105Z,2.40
2017-06-14T07:55:48.906Z,2.10
2017-06-14T07:58:15.646Z,2.27
2017-06-14T08:00:42.418Z,1.90
2017-06-14T08:03:09.195Z,1.73
2017-06-14T08:05:35.965Z,2.00
2017-06-14T08:08:02.719Z,0.70
2017-06-14T08:10:29.537Z,2.13
2017-06-14T08:12:56.289Z,1.70
2017-06-14T08:15:23.043Z,1.20
2017-06-14T08:17:49.849Z,1.27
2017-06-14T08:20:16.599Z,1.70
2017-06-14T08:22:43.353Z,2.00
2017-06-14T08:25:10.149Z,1.57
2017-06-14T08:27:36.953Z,2.23
2017-06-14T08:30:03.699Z,1.90
2017-06-14T08:32:30.517Z,1.80
2017-06-14T08:34:57.280Z,1.27
2017-06-14T08:37:24.141Z,2.00
2017-06-14T08:39:50.967Z,1.90
2017-06-14T08:42:17.708Z,1.60
2017-06-14T08:44:44.460Z,2.10
2017-06-14T08:47:11.257Z,1.80
2017-06-14T08:49:38.013Z,2.00
2017-06-14T08:52:04.791Z,2.17
2017-06-14T08:54:31.567Z,2.00
2017-06-14T08:56:58.326Z,2.20
2017-06-14T08:59:25.086Z,1.67
2017-06-14T09:01:51.862Z,0.90
2017-06-14T09:04:18.613Z,1.27
2017-06-14T09:06:45.369Z,1.37
2017-06-14T09:09:12.170Z,1.60
2017-06-14T09:11:38.925Z,1.60
2017-06-14T09:14:05.687Z,1.03
2017-06-14T09:16:32.490Z,1.43
2017-06-14T09:18:59.253Z,1.43
2017-06-14T09:21:26.029Z,1.60
2017-06-14T09:23:52.802Z,1.93
2017-06-14T09:26:19.547Z,1.30
2017-06-14T09:28:46.327Z,1.47
2017-06-14T09:31:13.118Z,0.90
2017-06-14T09:33:39.882Z,1.10
2017-06-14T09:36:06.619Z,1.23
2017-06-14T09:38:33.432Z,1.20
2017-06-14T09:41:00.212Z,0.47
2017-06-14T09:43:26.999Z,1.90
2017-06-14T09:45:53.772Z,1.50
2017-06-14T09:48:20.553Z,1.93
2017-06-14T09:50:47.320Z,1.70
2017-06-14T09:53:14.110Z,2.40
2017-06-14T09:55:40.863Z,1.23
2017-06-14T09:58:07.626Z,1.70
2017-06-14T10:00:34.418Z,2.10
2017-06-14T10:03:01.164Z,1.93
2017-06-14T10:05:27.921Z,1.67
2017-06-14T10:07:54.699Z,2.37
2017-06-14T10:10:21.461Z,1.77
2017-06-14T10:12:48.224Z,0.47
2017-06-14T10:15:15.026Z,1.43
2017-06-14T10:17:41.782Z,1.70
2017-06-14T10:20:08.532Z,1.90
2017-06-14T10:22:35.310Z,1.50
2017-06-14T10:25:02.049Z,1.53
2017-06-14T10:27:28.813Z,1.80
2017-06-14T10:29:55.582Z,1.70
2017-06-14T10:32:22.340Z,2.00
2017-06-14T10:34:49.122Z,1.50
2017-06-14T10:37:15.902Z,2.47
2017-06-14T10:39:42.665Z,2.33
2017-06-14T10:42:09.412Z,1.70
2017-06-14T10:44:36.191Z,1.80
2017-06-14T10:47:02.934Z,1.63
2017-06-14T10:49:29.670Z,2.57
2017-06-14T10:51:56.474Z,1.67
2017-06-14T10:54:23.245Z,1.80
2017-06-14T10:56:50.066Z,1.70
2017-06-14T10:59:16.868Z,2.07
2017-06-14T11:01:43.675Z,1.93
2017-06-14T11:04:10.412Z,2.20
2017-06-14T11:06:37.213Z,2.60
2017-06-14T11:09:04.011Z,2.00
2017-06-14T11:11:30.754Z,2.50
2017-06-14T11:13:57.543Z,2.20
2017-06-14T11:16:24.328Z,1.87
2017-06-14T11:18:51.089Z,1.90
2017-06-14T11:21:18.850Z,2.10
2017-06-14T11:23:45.655Z,2.20
2017-06-14T11:26:12.441Z,2.97
2017-06-14T11:28:39.270Z,1.90
2017-06-14T11:31:06.028Z,1.97
2017-06-14T11:33:32.800Z,1.97
2017-06-14T11:35:59.583Z,1.30
2017-06-14T11:38:26.345Z,2.17
2017-06-14T11:40:53.110Z,1.73
2017-06-14T11:43:19.902Z,1.13
2017-06-14T11:45:46.676Z,1.70
2017-06-14T11:48:13.431Z,1.90
2017-06-14T11:50:40.223Z,2.40
2017-06-14T11:53:07.096Z,2.47
2017-06-14T11:55:33.899Z,2.23
2017-06-14T11:58:00.788Z,1.20
2017-06-14T12:00:27.586Z,2.23
2017-06-14T12:02:54.364Z,2.07
2017-06-14T12:05:21.165Z,2.50
2017-06-14T12:07:47.933Z,2.10
2017-06-14T12:10:14.690Z,3.50
2017-06-14T12:12:41.494Z,2.50
2017-06-14T12:15:08.265Z,3.03
2017-06-14T12:17:35.494Z,2.30
2017-06-14T12:20:02.310Z,2.50
2017-06-14T12:22:29.054Z,2.13
2017-06-14T12:24:55.835Z,2.27
2017-06-14T12:27:22.660Z,2.13
2017-06-14T12:29:49.492Z,2.20
2017-06-14T12:32:16.233Z,2.60
2017-06-14T12:34:43.044Z,2.83
2017-06-14T12:37:09.787Z,2.30
2017-06-14T12:39:36.528Z,2.50
2017-06-14T12:42:03.308Z,2.13
2017-06-14T12:44:30.099Z,2.50
2017-06-14T12:46:56.862Z,2.40
2017-06-14T12:49:23.665Z,2.53
2017-06-14T12:51:50.435Z,2.63
2017-06-14T12:54:17.194Z,2.47
2017-06-14T12:56:44.025Z,2.60
2017-06-14T12:59:10.813Z,2.60
2017-06-14T13:01:37.553Z,2.67
2017-06-14T13:04:04.318Z,2.17
2017-06-14T13:06:31.082Z,2.50
2017-06-14T13:08:57.833Z,2.03
2017-06-14T13:11:24.637Z,2.30
2017-06-14T13:13:51.417Z,2.50
2017-06-14T13:16:18.172Z,3.20
2017-06-14T13:18:44.958Z,2.00
2017-06-14T13:21:11.710Z,2.30
2017-06-14T13:23:38.450Z,2.20
2017-06-14T13:26:05.233Z,2.00
2017-06-14T13:28:32.017Z,1.73
2017-06-14T13:30:58.776Z,2.40
2017-06-14T13:33:25.589Z,1.90
2017-06-14T13:35:52.362Z,2.17
2017-06-14T13:38:19.155Z,2.97
2017-06-14T13:40:45.967Z,2.20
2017-06-14T13:43:12.748Z,2.57
2017-06-14T13:45:39.493Z,2.80
2017-06-14T13:48:06.846Z,2.23
2017-06-14T13:50:33.607Z,2.10
2017-06-14T13:53:00.364Z,2.60
2017-06-14T13:55:27.153Z,2.80
2017-06-14T13:57:53.926Z,2.90
2017-06-14T14:00:20.675Z,2.43
2017-06-14T14:02:47.442Z,2.83
2017-06-14T14:05:14.187Z,2.20
2017-06-14T14:07:40.955Z,2.33
2017-06-14T14:10:07.849Z,2.83
2017-06-14T14:12:34.617Z,2.70
2017-06-14T14:15:02.529Z,2.67
2017-06-14T14:17:29.312Z,3.20
2017-06-14T14:19:56.071Z,2.70
2017-06-14T14:22:22.819Z,2.60
2017-06-14T14:24:49.587Z,3.20
2017-06-14T14:27:16.323Z,3.10
2017-06-14T14:29:43.085Z,2.97
2017-06-14T14:32:09.877Z,3.17
2017-06-14T14:34:36.641Z,3.13
2017-06-14T14:37:03.406Z,3.73
2017-06-14T14:39:30.211Z,3.00
2017-06-14T14:41:56.948Z,3.40
2017-06-14T14:44:23.721Z,3.10
2017-06-14T14:46:50.531Z,3.73
2017-06-14T14:49:17.284Z,3.23
2017-06-14T14:51:44.033Z,3.40
2017-06-14T14:54:10.813Z,3.13
2017-06-14T14:56:37.557Z,4.60
2017-06-14T14:59:04.305Z,3.20
2017-06-14T15:01:31.084Z,3.23
2017-06-14T15:03:57.854Z,3.10
2017-06-14T15:06:24.598Z,3.50
2017-06-14T15:08:51.403Z,2.87
2017-06-14T15:11:19.007Z,3.17
2017-06-14T15:13:45.754Z,2.70
2017-06-14T15:16:12.529Z,3.10
2017-06-14T15:18:39.307Z,3.40
2017-06-14T15:21:06.082Z,2.90
2017-06-14T15:23:32.978Z,3.10
2017-06-14T15:25:59.825Z,3.10
2017-06-14T15:28:26.647Z,3.37
2017-06-14T15:30:53.441Z,4.10
2017-06-14T15:33:20.202Z,3.90
2017-06-14T15:35:46.973Z,3.00
2017-06-14T15:38:13.773Z,2.83
2017-06-14T15:40:40.537Z,2.50
2017-06-14T15:43:07.301Z,3.13
2017-06-14T15:45:34.250Z,3.77
2017-06-14T15:48:01.085Z,3.20
2017-06-14T15:50:27.844Z,3.53
2017-06-14T15:52:54.670Z,2.93
2017-06-14T15:55:21.438Z,2.70
2017-06-14T15:57:48.220Z,3.43
2017-06-14T16:00:15.013Z,2.60
2017-06-14T16:02:41.781Z,3.30
2017-06-14T16:05:08.542Z,2.87
2017-06-14T16:07:35.343Z,1.97
2017-06-14T16:10:02.130Z,2.87
2017-06-14T16:12:28.939Z,3.07
2017-06-14T16:14:55.738Z,2.83
2017-06-14T16:17:22.529Z,2.70
2017-06-14T16:19:49.297Z,2.80
2017-06-14T16:22:16.082Z,3.50
2017-06-14T16:24:42.822Z,2.87
2017-06-14T16:27:09.577Z,3.53
2017-06-14T16:29:36.363Z,3.33
2017-06-14T16:32:03.126Z,3.37
2017-06-14T16:34:29.872Z,3.70
2017-06-14T16:36:57.523Z,3.50
2017-06-14T16:39:24.329Z,3.17
2017-06-14T16:41:51.176Z,3.33
2017-06-14T16:44:17.987Z,3.20
2017-06-14T16:46:44.764Z,3.27
2017-06-14T16:49:11.514Z,3.30
2017-06-14T16:51:38.291Z,3.93
2017-06-14T16:54:05.066Z,4.20
2017-06-14T16:56:31.992Z,3.80
2017-06-14T16:58:58.847Z,4.00
2017-06-14T17:01:25.604Z,3.60
2017-06-14T17:03:52.443Z,3.40
2017-06-14T17:06:19.232Z,3.30
2017-06-14T17:08:45.979Z,3.27
2017-06-14T17:11:13.158Z,4.40
2017-06-14T17:13:39.974Z,4.30
2017-06-14T17:16:06.742Z,3.70
2017-06-14T17:18:33.478Z,3.37
2017-06-14T17:21:00.268Z,4.93
2017-06-14T17:23:27.047Z,3.67
2017-06-14T17:25:53.837Z,4.20
2017-06-14T17:28:20.650Z,3.57
2017-06-14T17:30:47.585Z,3.40
2017-06-14T17:33:15.564Z,3.97
2017-06-14T17:35:42.423Z,3.50
2017-06-14T17:38:09.198Z,4.00
2017-06-14T17:40:35.939Z,4.10
2017-06-14T17:43:02.749Z,3.50
2017-06-14T17:45:29.525Z,3.80
2017-06-14T17:47:56.317Z,3.87
2017-06-14T17:50:23.120Z,3.83
2017-06-14T17:52:49.919Z,4.30
2017-06-14T17:55:16.690Z,3.83
2017-06-14T17:57:43.481Z,4.83
2017-06-14T18:00:10.258Z,4.17
2017-06-14T18:02:37.044Z,4.00
2017-06-14T18:05:03.878Z,4.30
2017-06-14T18:07:30.641Z,5.23
2017-06-14T18:09:57.388Z,4.50
2017-06-14T18:12:24.198Z,4.73
2017-06-14T18:14:50.972Z,4.63
2017-06-14T18:17:17.718Z,4.43
2017-06-14T18:19:44.500Z,4.87
2017-06-14T18:22:11.254Z,4.53
2017-06-14T18:24:38.002Z,5.20
2017-06-14T18:27:04.788Z,4.57
2017-06-14T18:29:31.534Z,4.20
2017-06-14T18:31:58.293Z,4.80
2017-06-14T18:34:25.091Z,5.33
2017-06-14T18:36:51.830Z,4.60
2017-06-14T18:39:18.620Z,3.80
2017-06-14T18:41:45.481Z,4.63
2017-06-14T18:44:12.247Z,4.60
2017-06-14T18:46:39.088Z,5.50
2017-06-14T18:49:05.871Z,5.00
2017-06-14T18:51:32.625Z,5.00
2017-06-14T18:53:59.426Z,5.40
2017-06-14T18:56:26.230Z,4.77
2017-06-14T18:58:52.997Z,5.00
2017-06-14T19:01:19.780Z,6.47
2017-06-14T19:03:46.603Z,5.27
2017-06-14T19:06:13.402Z,5.10
2017-06-14T19:08:40.173Z,5.00
2017-06-14T19:11:06.994Z,5.77
2017-06-14T19:13:33.764Z,6.00
2017-06-14T19:16:00.540Z,5.60
2017-06-14T19:18:27.374Z,5.80
2017-06-14T19:20:54.189Z,5.80
2017-06-14T19:23:20.993Z,6.23
2017-06-14T19:25:48.597Z,5.23
2017-06-14T19:28:15.398Z,4.87
2017-06-14T19:30:42.176Z,5.53
2017-06-14T19:33:09.033Z,6.00
2017-06-14T19:35:35.807Z,5.40
2017-06-14T19:38:02.584Z,6.07
2017-06-14T19:40:29.373Z,6.57
2017-06-14T19:42:56.170Z,6.27
2017-06-14T19:45:22.934Z,5.67
2017-06-14T19:47:49.740Z,6.33
2017-06-14T19:50:16.488Z,5.70
2017-06-14T19:52:43.231Z,6.40
2017-06-14T19:55:10.259Z,5.53
2017-06-14T19:57:37.053Z,5.80
2017-06-14T20:00:03.811Z,6.50
2017-06-14T20:02:30.599Z,5.80
2017-06-14T20:04:57.357Z,5.90
2017-06-14T20:07:24.103Z,6.80
2017-06-14T20:09:51.161Z,6.63
2017-06-14T20:12:17.954Z,7.00
2017-06-14T20:14:44.760Z,6.40
2017-06-14T20:17:11.543Z,6.23
2017-06-14T20:19:38.296Z,6.90
2017-06-14T20:22:05.094Z,7.00
2017-06-14T20:24:31.898Z,7.20
2017-06-14T20:26:58.643Z,6.33
2017-06-14T20:29:25.387Z,6.63
2017-06-14T20:31:52.159Z,6.33
2017-06-14T20:34:18.904Z,6.93
2017-06-14T20:36:45.668Z,6.67
2017-06-14T20:39:12.450Z,6.90
2017-06-14T20:41:39.205Z,8.13
2017-06-14T20:44:05.965Z,6.30
2017-06-14T20:46:33.171Z,6.43
2017-06-14T20:48:59.911Z,6.27
2017-06-14T20:51:26.662Z,7.50
2017-06-14T20:53:53.478Z,7.27
2017-06-14T20:56:20.210Z,7.60
2017-06-14T20:58:46.955Z,7.70
2017-06-14T21:01:13.749Z,8.63
2017-06-14T21:03:40.506Z,8.50
2017-06-14T21:06:07.281Z,8.30
2017-06-14T21:08:34.146Z,7.60
2017-06-14T21:11:00.882Z,8.80
2017-06-14T21:13:27.641Z,8.10
2017-06-14T21:15:54.414Z,8.60
2017-06-14T21:18:21.173Z,8.40
2017-06-14T21:20:47.945Z,9.00
2017-06-14T21:23:14.732Z,9.50
2017-06-14T21:25:41.491Z,11.50
2017-06-14T21:28:08.261Z,10.20
2017-06-14T21:30:35.051Z,10.57
2017-06-14T21:33:01.826Z,8.87
2017-06-14T21:35:28.595Z,8.10
2017-06-14T21:37:55.403Z,7.80
2017-06-14T21:40:22.161Z,8.07
2017-06-14T21:42:48.917Z,7.73
2017-06-14T21:45:15.703Z,7.50
2017-06-14T21:47:42.471Z,8.47
2017-06-14T21:50:09.238Z,8.03
2017-06-14T21:52:36.041Z,8.57
2017-06-14T21:55:02.827Z,8.27
2017-06-14T21:57:29.585Z,8.60
2017-06-14T21:59:56.364Z,8.17
2017-06-14T22:02:23.099Z,7.80
2017-06-14T22:04:49.841Z,8.23
2017-06-14T22:07:16.652Z,7.80
2017-06-14T22:09:43.426Z,9.10
2017-06-14T22:12:10.166Z,8.90
2017-06-14T22:14:36.970Z,7.70
2017-06-14T22:17:03.729Z,8.63
2017-06-14T22:19:30.475Z,8.73
2017-06-14T22:21:57.271Z,9.17
